Terminal Aerodrome Forecast
Issued by NWS

Home | Current Version | Previous Version | Text Only | Print | Product List | Glossary On
Versions: 1 2 3 4 5 6 7 8 9 10 11 12 13 14 15 16 17
000
FTUS44 KLIX 251725
TAFMCB
TAF
KMCB 251725Z 2518/2618 15010KT P6SM VCTS SCT030CB BKN090
     FM260000 14009KT P6SM VCSH SCT030 BKN150
     FM260600 16005KT P6SM BKN015
     FM261600 17010KT P6SM VCSH BKN025=

USA.gov is the U.S. government's official web portal to all federal, state and local government web resources and services.